Time;durP1;ratioP1;P1;durP2;ratioP2;P2;SDS_P1;SDS_P2;PMS_P1;PMS_P2;Temp;Humidity;BMP_temperature;BMP_pressure;BME280_temperature;BME280_humidity;BME280_pressure;Samples;Min_cycle;Max_cycle;Signal;HPM_P1;HPM_P2
2021/06/09 00:01:43;;;;;;;10.43;9.32;;;20.70;70.10;;;;;;5076294;28;20191;-81
2021/06/09 00:04:10;;;;;;;10.30;9.20;;;20.70;70.10;;;;;;5076153;28;20199;-80
2021/06/09 00:06:36;;;;;;;11.55;9.88;;;20.70;70.10;;;;;;5075886;28;20188;-81
2021/06/09 00:09:03;;;;;;;11.20;9.60;;;20.70;70.00;;;;;;5093588;28;20172;-81
2021/06/09 00:11:31;;;;;;;11.27;10.10;;;20.70;70.10;;;;;;5075978;28;20238;-80
2021/06/09 00:13:57;;;;;;;11.50;10.18;;;20.70;70.10;;;;;;5075892;28;20184;-79
2021/06/09 00:16:24;;;;;;;10.90;9.80;;;20.70;70.10;;;;;;5059236;28;20626;-83
2021/06/09 00:18:54;;;;;;;10.68;9.57;;;20.70;70.10;;;;;;5076153;28;20188;-82
2021/06/09 00:21:21;;;;;;;12.05;10.35;;;20.60;70.00;;;;;;5076282;28;20534;-80
2021/06/09 00:23:47;;;;;;;11.02;9.80;;;20.60;70.00;;;;;;5093677;28;20496;-80
2021/06/09 00:26:14;;;;;;;11.50;10.20;;;20.70;70.10;;;;;;5093531;28;20639;-83
2021/06/09 00:28:40;;;;;;;10.63;9.52;;;20.70;70.10;;;;;;5094829;28;20236;-80
2021/06/09 00:31:10;;;;;;;10.88;9.77;;;20.70;70.10;;;;;;5093389;28;20620;-80
2021/06/09 00:33:43;;;;;;;11.75;10.30;;;20.60;70.10;;;;;;5075801;28;20185;-79
2021/06/09 00:36:10;;;;;;;11.88;10.20;;;20.70;70.10;;;;;;5075752;28;20671;-80
2021/06/09 00:38:41;;;;;;;12.18;10.45;;;20.70;70.10;;;;;;5058881;28;20177;-80
2021/06/09 00:41:09;;;;;;;11.30;10.10;;;20.70;70.10;;;;;;5076200;28;20261;-83
2021/06/09 00:43:35;;;;;;;12.35;10.63;;;20.70;70.10;;;;;;5059257;28;20538;-82
2021/06/09 00:46:04;;;;;;;10.90;9.73;;;20.70;70.00;;;;;;5075946;28;20249;-81
2021/06/09 00:48:35;;;;;;;11.80;10.20;;;20.70;70.00;;;;;;5059491;28;20181;-80
2021/06/09 00:51:02;;;;;;;10.55;9.45;;;20.70;70.00;;;;;;5059000;28;20627;-80
2021/06/09 00:53:34;;;;;;;10.90;9.73;;;20.60;70.00;;;;;;5093278;28;20160;-83
2021/06/09 00:56:03;;;;;;;11.43;10.23;;;20.70;70.00;;;;;;5093013;28;20205;-80
2021/06/09 00:58:30;;;;;;;11.30;10.10;;;20.70;70.00;;;;;;5094619;28;20155;-82
2021/06/09 01:00:56;;;;;;;11.75;9.50;;;20.70;70.00;;;;;;5094873;28;20156;-79
2021/06/09 01:03:23;;;;;;;11.07;9.88;;;20.70;70.00;;;;;;5093232;28;20615;-80
2021/06/09 01:05:50;;;;;;;12.00;9.80;;;20.70;70.00;;;;;;5092995;28;20168;-82
2021/06/09 01:08:16;;;;;;;11.88;10.13;;;20.70;70.00;;;;;;5076338;28;20521;-81
2021/06/09 01:10:47;;;;;;;11.10;9.90;;;20.60;69.80;;;;;;5094343;28;20161;-83
2021/06/09 01:13:18;;;;;;;10.43;9.30;;;20.60;69.90;;;;;;5093265;28;20599;-82
2021/06/09 01:15:47;;;;;;;11.48;9.85;;;20.60;70.00;;;;;;5075761;28;20236;-79
2021/06/09 01:18:16;;;;;;;10.90;9.43;;;20.60;70.00;;;;;;5058807;28;20180;-80
2021/06/09 01:20:45;;;;;;;11.20;10.00;;;20.60;70.00;;;;;;5075270;28;20184;-82
2021/06/09 01:23:16;;;;;;;11.52;10.05;;;20.60;70.00;;;;;;5075649;28;20184;-80
2021/06/09 01:25:46;;;;;;;10.90;9.73;;;20.60;70.00;;;;;;5075511;28;20233;-81
2021/06/09 01:28:15;;;;;;;12.80;10.80;;;20.60;69.80;;;;;;5075632;28;20538;-80
2021/06/09 01:30:43;;;;;;;12.15;10.27;;;20.70;69.90;;;;;;5075591;28;20189;-82
2021/06/09 01:33:12;;;;;;;11.32;9.73;;;20.70;70.00;;;;;;5058401;28;20195;-81
2021/06/09 01:35:38;;;;;;;11.20;10.00;;;20.60;70.00;;;;;;5075248;28;20215;-79
2021/06/09 01:38:07;;;;;;;11.32;9.90;;;20.60;69.90;;;;;;5093903;28;20157;-79
2021/06/09 01:40:35;;;;;;;11.25;9.98;;;20.60;70.00;;;;;;5075416;28;20549;-82
2021/06/09 01:43:03;;;;;;;11.88;10.45;;;20.60;70.00;;;;;;5058482;28;20180;-82
2021/06/09 01:45:31;;;;;;;11.30;9.48;;;20.60;70.00;;;;;;5092845;28;20160;-82
2021/06/09 01:47:59;;;;;;;11.13;9.93;;;20.60;69.90;;;;;;5094807;28;20243;-82
2021/06/09 01:50:25;;;;;;;11.43;10.23;;;20.60;70.00;;;;;;5097770;28;20531;-82
2021/06/09 01:52:51;;;;;;;10.75;9.63;;;20.60;70.00;;;;;;5096413;28;20216;-79
2021/06/09 01:55:19;;;;;;;11.85;10.18;;;20.60;70.00;;;;;;5079596;28;20184;-81
2021/06/09 01:57:48;;;;;;;11.35;10.07;;;20.50;70.00;;;;;;5096626;28;20604;-82
2021/06/09 02:00:26;;;;;;;10.30;9.20;;;20.60;70.00;;;;;;5061857;28;20176;-80
2021/06/09 02:02:59;;;;;;;10.93;9.82;;;20.60;70.00;;;;;;5097210;28;20152;-82
2021/06/09 02:05:32;;;;;;;12.00;10.32;;;20.60;70.00;;;;;;5079065;28;20564;-81
2021/06/09 02:07:59;;;;;;;12.40;10.40;;;20.60;70.00;;;;;;5061995;28;20184;-81
2021/06/09 02:10:25;;;;;;;11.88;10.15;;;20.60;70.10;;;;;;5096448;28;20165;-80
2021/06/09 02:12:53;;;;;;;11.57;10.00;;;20.60;70.10;;;;;;5079953;28;20221;-80
2021/06/09 02:15:21;;;;;;;12.15;10.15;;;20.60;70.10;;;;;;5096175;28;20188;-80
2021/06/09 02:17:56;;;;;;;10.90;9.68;;;20.60;70.10;;;;;;5096177;28;20149;-80
2021/06/09 02:20:22;;;;;;;11.18;9.98;;;20.60;70.10;;;;;;5096128;28;20175;-82
2021/06/09 02:22:48;;;;;;;11.48;10.27;;;20.60;70.00;;;;;;5095898;28;20149;-80
2021/06/09 02:25:13;;;;;;;11.82;10.18;;;20.60;69.90;;;;;;5079031;28;20222;-79
2021/06/09 02:27:41;;;;;;;11.95;10.40;;;20.60;70.00;;;;;;5095757;28;20585;-83
2021/06/09 02:30:09;;;;;;;11.75;10.05;;;20.60;70.00;;;;;;5097341;28;20181;-82
2021/06/09 02:32:36;;;;;;;11.32;10.05;;;20.60;70.00;;;;;;5078535;28;20180;-81
2021/06/09 02:35:03;;;;;;;12.27;10.65;;;20.60;70.00;;;;;;5095500;28;20216;-83
2021/06/09 02:37:31;;;;;;;11.80;10.40;;;20.50;70.00;;;;;;5095495;28;20282;-82
2021/06/09 02:39:59;;;;;;;12.93;10.93;;;20.50;70.00;;;;;;5077981;28;20240;-80
2021/06/09 02:42:28;;;;;;;12.13;10.68;;;20.60;70.00;;;;;;5096749;28;20608;-82
2021/06/09 02:44:55;;;;;;;11.40;10.10;;;20.60;70.00;;;;;;5078121;28;20202;-82
2021/06/09 02:47:22;;;;;;;11.77;10.32;;;20.50;70.00;;;;;;5060768;28;20176;-80
2021/06/09 02:49:50;;;;;;;12.63;10.63;;;20.50;70.10;;;;;;5077401;28;20191;-81
2021/06/09 02:52:27;;;;;;;12.15;10.20;;;20.60;70.10;;;;;;5077597;28;20307;-83
2021/06/09 02:54:59;;;;;;;11.48;10.02;;;20.50;70.00;;;;;;5078001;28;20208;-78
2021/06/09 02:57:51;;;;;;;11.68;10.48;;;20.60;70.00;;;;;;5077562;28;20645;-81
2021/06/09 03:00:24;;;;;;;11.50;10.13;;;20.50;70.00;;;;;;5066996;28;20548;-82
2021/06/09 03:03:07;;;;;;;12.38;10.73;;;20.60;70.20;;;;;;5061667;28;20679;-81
2021/06/09 03:06:01;;;;;;;11.48;10.27;;;20.50;70.10;;;;;;5094994;28;20156;-80
2021/06/09 03:08:38;;;;;;;11.35;10.13;;;20.50;70.20;;;;;;5094586;28;20720;-81
2021/06/09 03:11:30;;;;;;;11.27;9.80;;;20.50;70.10;;;;;;5094366;28;20172;-79
2021/06/09 03:16:56;;;;;;;12.52;10.80;;;20.60;70.10;;;;;;5094646;28;20182;-80
2021/06/09 03:19:26;;;;;;;11.93;10.60;;;20.60;70.10;;;;;;5095488;28;20611;-80
2021/06/09 03:21:56;;;;;;;12.43;10.70;;;20.50;69.90;;;;;;5094485;28;20703;-80
2021/06/09 03:24:27;;;;;;;12.43;10.68;;;20.50;70.10;;;;;;5094628;28;20239;-81
2021/06/09 03:26:58;;;;;;;12.45;11.15;;;20.60;70.10;;;;;;5094548;28;20689;-82
2021/06/09 03:29:39;;;;;;;11.82;10.52;;;20.60;70.10;;;;;;5096111;28;20173;-81
2021/06/09 03:32:17;;;;;;;12.15;10.82;;;20.60;70.00;;;;;;5061302;28;20252;-80
2021/06/09 03:34:46;;;;;;;12.20;10.48;;;20.60;69.80;;;;;;5077333;28;20706;-82
2021/06/09 03:37:18;;;;;;;12.13;10.68;;;20.60;69.70;;;;;;5094432;28;20152;-82
2021/06/09 03:39:44;;;;;;;12.98;10.93;;;20.60;69.70;;;;;;5077377;28;20185;-82
2021/06/09 03:42:10;;;;;;;11.43;10.23;;;20.60;69.80;;;;;;5077866;28;20696;-81
2021/06/09 03:44:40;;;;;;;12.43;10.88;;;20.60;69.80;;;;;;5094608;28;20157;-79
2021/06/09 03:47:07;;;;;;;12.15;10.52;;;20.60;69.70;;;;;;5094349;28;20175;-79
2021/06/09 03:49:35;;;;;;;11.50;9.93;;;20.60;70.40;;;;;;5095999;28;20229;-79
2021/06/09 03:52:03;;;;;;;12.73;10.60;;;20.60;69.60;;;;;;5076783;28;20224;-79
2021/06/09 03:54:32;;;;;;;11.52;10.32;;;20.60;69.50;;;;;;5077074;28;20216;-81
2021/06/09 03:56:59;;;;;;;11.43;10.23;;;20.60;69.40;;;;;;5044108;28;20279;-80
2021/06/09 03:59:27;;;;;;;12.45;10.80;;;20.60;69.40;;;;;;5094551;28;20237;-80
2021/06/09 04:01:55;;;;;;;11.95;10.65;;;20.60;69.40;;;;;;5076825;28;20581;-82
2021/06/09 04:04:21;;;;;;;11.82;10.63;;;20.70;69.50;;;;;;5076569;28;20184;-79
2021/06/09 04:06:50;;;;;;;11.68;10.30;;;20.60;69.40;;;;;;5094071;28;20163;-82
2021/06/09 04:09:21;;;;;;;11.48;10.27;;;20.60;69.30;;;;;;5076410;28;20551;-79
2021/06/09 04:11:58;;;;;;;11.70;10.32;;;20.70;69.30;;;;;;5059913;28;20574;-82
2021/06/09 04:14:29;;;;;;;11.85;10.38;;;20.70;69.20;;;;;;5060436;28;20215;-80
2021/06/09 04:16:56;;;;;;;11.85;10.02;;;20.70;69.00;;;;;;5060663;28;20267;-81
2021/06/09 04:19:25;;;;;;;11.90;10.52;;;20.80;68.70;;;;;;5076480;28;20635;-81
2021/06/09 04:21:52;;;;;;;11.80;10.60;;;20.90;68.50;;;;;;5059512;28;20682;-82
2021/06/09 04:24:20;;;;;;;11.55;10.23;;;20.90;68.50;;;;;;5075736;28;20180;-82
2021/06/09 04:26:48;;;;;;;11.35;9.95;;;20.90;68.40;;;;;;5059342;28;20312;-80
2021/06/09 04:29:15;;;;;;;11.80;10.60;;;21.00;68.40;;;;;;5076293;28;20233;-80
2021/06/09 04:31:45;;;;;;;11.70;10.50;;;20.90;68.20;;;;;;5042967;28;20208;-83
2021/06/09 04:34:12;;;;;;;12.23;10.93;;;20.90;68.50;;;;;;5076312;28;20272;-81
2021/06/09 04:36:41;;;;;;;12.07;10.77;;;20.80;68.60;;;;;;5075790;28;20180;-80
2021/06/09 04:39:10;;;;;;;10.88;9.70;;;20.80;68.80;;;;;;5059854;28;20180;-82
2021/06/09 04:41:37;;;;;;;11.13;9.95;;;20.90;68.70;;;;;;5060029;28;20191;-82
2021/06/09 04:44:04;;;;;;;12.07;10.77;;;20.90;68.50;;;;;;5075862;28;20192;-79
2021/06/09 04:46:30;;;;;;;12.52;10.27;;;20.90;68.20;;;;;;5076626;28;20184;-80
2021/06/09 04:49:03;;;;;;;11.48;10.27;;;20.90;68.10;;;;;;5095062;28;20187;-80
2021/06/09 04:51:30;;;;;;;11.30;10.10;;;21.00;68.20;;;;;;5097343;28;20338;-79
2021/06/09 04:54:00;;;;;;;10.77;9.57;;;20.90;68.30;;;;;;5096821;28;20172;-80
2021/06/09 04:56:32;;;;;;;11.50;10.30;;;20.90;68.50;;;;;;5098006;28;20148;-81
2021/06/09 04:59:01;;;;;;;11.68;10.13;;;21.00;68.30;;;;;;5095721;28;20164;-79
2021/06/09 05:01:27;;;;;;;11.98;10.23;;;21.00;68.10;;;;;;5096621;28;20180;-82
2021/06/09 05:03:57;;;;;;;11.52;10.20;;;21.00;68.00;;;;;;5097761;28;20626;-81
2021/06/09 05:06:29;;;;;;;10.93;9.80;;;21.00;67.90;;;;;;5097746;28;20157;-82
2021/06/09 05:09:00;;;;;;;11.07;9.90;;;21.00;68.00;;;;;;5077858;28;20306;-83
2021/06/09 05:12:03;;;;;;;11.32;10.13;;;21.00;68.00;;;;;;5077867;28;20173;-79
2021/06/09 05:14:46;;;;;;;11.00;9.80;;;21.00;67.90;;;;;;5067785;28;20203;-79
2021/06/09 05:17:16;;;;;;;12.50;10.43;;;21.00;67.90;;;;;;5062412;28;20183;-82
2021/06/09 05:19:46;;;;;;;11.13;9.90;;;21.00;68.10;;;;;;5078299;28;20176;-80
2021/06/09 05:22:21;;;;;;;11.32;10.07;;;21.00;68.00;;;;;;5078587;28;20546;-82
2021/06/09 05:24:50;;;;;;;11.10;9.95;;;21.00;67.90;;;;;;5082776;28;20709;-82
2021/06/09 05:27:21;;;;;;;10.95;9.77;;;20.90;68.00;;;;;;5082892;28;20194;-81
2021/06/09 05:29:50;;;;;;;10.52;9.45;;;21.00;68.30;;;;;;5082523;28;20192;-83
2021/06/09 05:32:21;;;;;;;11.25;10.13;;;21.00;68.10;;;;;;5082260;28;20207;-81
2021/06/09 05:34:49;;;;;;;11.00;9.77;;;20.90;68.20;;;;;;5048754;28;20215;-79
2021/06/09 05:37:15;;;;;;;11.52;10.32;;;21.00;68.20;;;;;;5081804;28;20187;-80
2021/06/09 05:39:42;;;;;;;11.80;10.50;;;21.00;68.20;;;;;;5096800;28;20149;-80
2021/06/09 05:42:11;;;;;;;11.63;10.02;;;21.00;68.30;;;;;;5079661;28;20212;-82
2021/06/09 05:44:42;;;;;;;10.68;9.57;;;21.00;68.30;;;;;;5062723;28;20317;-81
2021/06/09 05:47:09;;;;;;;11.18;9.98;;;21.00;69.20;;;;;;5062602;28;20665;-81
2021/06/09 05:49:35;;;;;;;11.18;10.05;;;20.90;68.10;;;;;;5097182;28;20161;-83
2021/06/09 05:52:00;;;;;;;10.82;9.63;;;20.90;68.30;;;;;;5098420;28;20295;-80
2021/06/09 05:54:33;;;;;;;10.70;9.02;;;20.90;68.30;;;;;;5100869;28;20188;-83
2021/06/09 05:57:01;;;;;;;11.82;9.82;;;20.90;68.60;;;;;;5100432;28;20566;-82
2021/06/09 05:59:27;;;;;;;12.40;10.35;;;20.90;68.60;;;;;;5102023;28;20146;-79
2021/06/09 06:01:55;;;;;;;11.52;10.00;;;20.90;68.50;;;;;;5101635;28;20168;-80
2021/06/09 06:04:24;;;;;;;11.07;9.95;;;21.00;68.10;;;;;;5083580;28;20188;-80
2021/06/09 06:06:53;;;;;;;11.00;9.68;;;20.90;68.10;;;;;;5067309;28;20643;-81
2021/06/09 06:09:21;;;;;;;11.73;10.15;;;21.00;68.30;;;;;;5065874;28;20184;-79
2021/06/09 06:11:47;;;;;;;10.68;9.52;;;21.00;68.00;;;;;;5080544;28;20528;-78
2021/06/09 06:14:15;;;;;;;11.18;9.95;;;21.00;68.00;;;;;;5101286;28;20647;-83
2021/06/09 06:16:52;;;;;;;12.07;10.27;;;21.00;68.10;;;;;;5085986;28;20181;-81
2021/06/09 06:19:21;;;;;;;10.52;9.43;;;21.00;68.00;;;;;;5085064;28;20696;-81
2021/06/09 06:21:49;;;;;;;10.68;9.40;;;21.00;68.00;;;;;;5069613;28;20180;-81
2021/06/09 06:24:17;;;;;;;11.35;9.48;;;21.00;68.00;;;;;;5070718;28;20184;-81
2021/06/09 06:26:49;;;;;;;12.43;9.50;;;21.10;67.70;;;;;;5083659;28;20192;-83
2021/06/09 06:29:17;;;;;;;11.50;9.95;;;21.10;67.80;;;;;;5082546;28;20188;-80
2021/06/09 06:31:45;;;;;;;10.60;9.50;;;21.20;67.60;;;;;;5099551;28;20193;-81
2021/06/09 06:34:15;;;;;;;10.73;9.40;;;21.10;67.80;;;;;;5081675;28;20272;-80
2021/06/09 06:36:44;;;;;;;11.23;9.50;;;21.10;68.10;;;;;;5068073;28;20176;-81
2021/06/09 06:39:14;;;;;;;11.88;9.75;;;21.10;67.80;;;;;;5068175;28;20195;-82
2021/06/09 06:41:42;;;;;;;11.05;9.80;;;21.00;68.10;;;;;;5101110;28;20220;-81
2021/06/09 06:44:12;;;;;;;10.95;9.30;;;21.10;67.80;;;;;;5068409;28;20176;-83
2021/06/09 06:46:40;;;;;;;10.23;9.13;;;21.10;68.00;;;;;;5067982;28;20551;-81
2021/06/09 06:49:08;;;;;;;9.98;8.98;;;21.00;68.20;;;;;;5068581;28;20565;-81
2021/06/09 06:51:34;;;;;;;10.35;9.25;;;21.00;69.10;;;;;;5065960;28;20213;-81
2021/06/09 06:54:01;;;;;;;10.40;9.20;;;21.00;68.10;;;;;;5117560;28;20172;-82
2021/06/09 06:56:29;;;;;;;10.48;9.38;;;21.20;68.10;;;;;;5067345;28;20185;-81
2021/06/09 06:59:00;;;;;;;11.82;9.65;;;21.30;67.50;;;;;;5065418;28;20647;-81
2021/06/09 07:01:32;;;;;;;11.02;8.85;;;21.20;67.40;;;;;;5080833;28;20667;-81
2021/06/09 07:04:03;;;;;;;9.75;8.75;;;21.30;67.80;;;;;;5067048;28;20226;-82
2021/06/09 07:06:33;;;;;;;9.93;8.88;;;21.40;67.40;;;;;;5098034;28;20187;-83
2021/06/09 07:09:02;;;;;;;10.20;9.18;;;21.30;67.00;;;;;;5064922;28;20176;-82
2021/06/09 07:11:31;;;;;;;10.20;9.07;;;21.40;67.10;;;;;;5047036;28;20215;-82
2021/06/09 07:13:58;;;;;;;10.65;9.20;;;21.30;67.20;;;;;;5064033;28;20184;-82
2021/06/09 07:16:33;;;;;;;11.45;9.43;;;21.20;68.00;;;;;;5063688;28;20512;-82
2021/06/09 07:19:03;;;;;;;10.15;9.05;;;21.20;68.50;;;;;;5096247;28;20186;-82
2021/06/09 07:21:29;;;;;;;9.77;8.77;;;21.10;69.20;;;;;;5078745;28;20533;-81
2021/06/09 07:24:00;;;;;;;9.43;8.43;;;21.10;70.00;;;;;;5097595;28;20199;-82
2021/06/09 07:26:32;;;;;;;9.40;8.40;;;21.20;70.60;;;;;;5061694;28;20267;-82
2021/06/09 07:29:02;;;;;;;9.63;8.63;;;21.20;70.30;;;;;;5079514;28;20596;-81
2021/06/09 07:31:33;;;;;;;9.73;8.55;;;21.10;70.80;;;;;;5079631;28;20488;-83
2021/06/09 07:34:03;;;;;;;8.85;7.95;;;21.00;71.30;;;;;;5064178;28;20176;-82
2021/06/09 07:36:46;;;;;;;9.70;8.70;;;21.10;72.50;;;;;;5062907;28;20252;-83
2021/06/09 07:39:23;;;;;;;9.88;8.80;;;21.20;72.20;;;;;;5066171;28;20180;-80
2021/06/09 07:41:53;;;;;;;9.80;8.80;;;21.10;72.20;;;;;;5080382;28;20184;-81
2021/06/09 07:44:19;;;;;;;9.38;8.23;;;21.10;72.90;;;;;;5078895;28;20180;-84
2021/06/09 07:46:45;;;;;;;9.93;8.85;;;21.10;73.60;;;;;;5097705;28;20181;-81
2021/06/09 07:49:12;;;;;;;9.68;7.93;;;21.00;74.10;;;;;;5097677;28;20164;-81
2021/06/09 07:51:38;;;;;;;10.75;8.73;;;21.00;74.80;;;;;;5096280;28;20299;-80
2021/06/09 07:54:04;;;;;;;9.65;8.65;;;21.10;74.70;;;;;;5096918;28;20199;-83
2021/06/09 07:56:35;;;;;;;11.25;8.90;;;21.10;74.50;;;;;;5095712;28;20164;-81
2021/06/09 07:59:02;;;;;;;10.27;8.82;;;21.10;74.70;;;;;;5079686;28;20176;-82
2021/06/09 08:01:28;;;;;;;9.52;8.52;;;21.00;75.40;;;;;;5096031;28;20160;-82
2021/06/09 08:03:54;;;;;;;11.15;9.02;;;21.00;75.90;;;;;;5097107;28;20159;-81
2021/06/09 08:06:20;;;;;;;9.23;8.30;;;21.00;76.10;;;;;;5097455;28;20156;-81
2021/06/09 08:08:45;;;;;;;9.85;8.82;;;21.00;77.30;;;;;;5097974;28;20590;-81
2021/06/09 08:11:12;;;;;;;10.00;8.88;;;21.10;76.50;;;;;;5095067;28;20213;-82
2021/06/09 08:13:38;;;;;;;10.10;8.82;;;21.00;76.30;;;;;;5094582;28;20149;-83
2021/06/09 08:16:10;;;;;;;11.35;8.88;;;20.90;77.40;;;;;;5095656;28;20188;-80
2021/06/09 08:18:37;;;;;;;10.60;9.30;;;20.90;77.70;;;;;;5095675;28;20148;-80
2021/06/09 08:21:06;;;;;;;10.45;8.82;;;20.80;77.70;;;;;;5094249;28;20608;-82
2021/06/09 08:23:32;;;;;;;9.88;8.88;;;20.80;78.70;;;;;;5093486;28;20248;-81
2021/06/09 08:25:58;;;;;;;10.80;9.05;;;20.80;79.00;;;;;;5094004;28;20157;-83
2021/06/09 08:28:24;;;;;;;11.40;9.13;;;20.90;79.40;;;;;;5095453;28;20562;-81
2021/06/09 08:30:50;;;;;;;10.38;8.93;;;21.00;79.40;;;;;;5094049;28;20153;-81
2021/06/09 08:33:16;;;;;;;10.48;9.27;;;20.90;79.70;;;;;;5096302;28;20156;-83
2021/06/09 08:35:41;;;;;;;10.82;9.35;;;20.90;78.50;;;;;;5094555;28;20184;-80
2021/06/09 08:38:08;;;;;;;11.20;9.52;;;20.90;78.70;;;;;;5095047;28;20161;-84
2021/06/09 08:40:37;;;;;;;13.00;9.20;;;20.90;78.70;;;;;;5076999;28;20201;-80
2021/06/09 08:43:03;;;;;;;10.55;9.40;;;20.90;78.10;;;;;;5096336;28;20485;-82
2021/06/09 08:45:29;;;;;;;10.88;9.30;;;21.00;77.90;;;;;;5096474;28;20168;-83
2021/06/09 08:47:55;;;;;;;11.45;8.98;;;21.00;77.70;;;;;;5077686;28;20221;-84
2021/06/09 08:50:21;;;;;;;11.82;9.45;;;21.10;78.00;;;;;;5100397;28;20168;-82
2021/06/09 08:52:49;;;;;;;11.50;9.27;;;21.10;77.10;;;;;;5094343;28;20216;-81
2021/06/09 08:55:16;;;;;;;10.50;9.00;;;21.10;76.90;;;;;;5094979;28;20176;-82
2021/06/09 08:57:42;;;;;;;12.93;9.10;;;21.20;76.60;;;;;;5099692;28;20152;-83
2021/06/09 09:00:09;;;;;;;14.35;9.50;;;21.20;76.60;;;;;;5103717;28;20140;-80
2021/06/09 09:02:35;;;;;;;14.93;9.82;;;21.20;77.20;;;;;;5101721;28;20235;-84
2021/06/09 09:05:06;;;;;;;13.30;9.27;;;21.20;76.90;;;;;;5100307;28;20168;-81
2021/06/09 09:07:32;;;;;;;14.32;9.40;;;21.30;76.90;;;;;;5065869;28;20599;-83
2021/06/09 09:09:58;;;;;;;16.30;9.80;;;21.20;76.50;;;;;;5101190;28;20164;-82
2021/06/09 09:12:24;;;;;;;13.73;9.73;;;21.30;76.90;;;;;;5100283;28;20239;-82
2021/06/09 09:14:50;;;;;;;11.30;9.18;;;21.40;76.70;;;;;;5100341;28;20267;-81
2021/06/09 09:17:16;;;;;;;13.70;9.30;;;21.40;76.10;;;;;;5100788;28;20608;-81
2021/06/09 09:19:44;;;;;;;14.48;9.75;;;21.40;76.10;;;;;;5100445;28;20163;-80
2021/06/09 09:22:11;;;;;;;15.35;9.95;;;21.30;76.10;;;;;;5099283;28;20241;-79
2021/06/09 09:24:43;;;;;;;13.00;9.90;;;21.30;76.30;;;;;;5100331;28;20184;-81
2021/06/09 09:27:09;;;;;;;11.80;9.95;;;21.30;76.10;;;;;;5098644;28;20153;-81
2021/06/09 09:29:36;;;;;;;14.20;9.65;;;21.30;76.20;;;;;;5100588;28;20145;-81
2021/06/09 09:32:07;;;;;;;11.50;9.65;;;21.30;76.60;;;;;;5099917;28;20156;-81
2021/06/09 09:34:43;;;;;;;15.63;9.60;;;21.30;76.30;;;;;;5098528;28;20742;-80
2021/06/09 09:37:18;;;;;;;12.30;9.95;;;21.30;76.30;;;;;;5100500;28;20152;-82
2021/06/09 09:39:48;;;;;;;13.43;9.80;;;21.30;76.30;;;;;;5100323;28;20152;-83
2021/06/09 09:42:31;;;;;;;11.95;9.43;;;21.40;76.30;;;;;;5099153;28;20180;-81
2021/06/09 09:45:27;;;;;;;10.57;8.93;;;21.30;76.30;;;;;;5082182;28;20168;-81
2021/06/09 09:48:11;;;;;;;11.45;9.43;;;21.30;76.30;;;;;;5081524;28;20675;-81
2021/06/09 09:50:46;;;;;;;10.30;9.27;;;21.40;76.00;;;;;;5081826;28;20184;-83
2021/06/09 09:53:21;;;;;;;13.27;9.57;;;21.40;76.00;;;;;;5082298;28;20243;-79
2021/06/09 09:56:08;;;;;;;10.52;9.38;;;21.40;76.00;;;;;;5098588;28;20245;-82
2021/06/09 09:58:38;;;;;;;15.05;9.20;;;21.40;76.30;;;;;;5099245;28;20149;-80
2021/06/09 10:01:14;;;;;;;11.70;9.38;;;21.30;76.60;;;;;;5082708;28;20183;-80
2021/06/09 10:03:41;;;;;;;10.82;9.70;;;21.40;76.30;;;;;;5100620;28;20164;-81
2021/06/09 10:06:31;;;;;;;13.02;9.38;;;21.40;76.30;;;;;;5098807;28;20250;-80
2021/06/09 10:09:18;;;;;;;9.82;8.82;;;21.30;76.30;;;;;;5098255;28;20164;-81
2021/06/09 10:11:58;;;;;;;12.40;9.60;;;21.40;76.40;;;;;;5099170;28;20183;-83
2021/06/09 10:14:35;;;;;;;10.55;9.23;;;21.30;76.40;;;;;;5097470;28;20592;-81
2021/06/09 10:17:07;;;;;;;12.20;9.50;;;21.40;76.30;;;;;;5080597;28;20164;-82
2021/06/09 10:19:38;;;;;;;13.25;9.98;;;21.40;76.30;;;;;;5098471;28;20191;-82
2021/06/09 10:22:10;;;;;;;11.68;9.95;;;21.40;76.30;;;;;;5100649;28;20153;-79
2021/06/09 10:24:48;;;;;;;11.63;9.60;;;21.40;76.00;;;;;;5081392;28;20279;-82
2021/06/09 10:27:19;;;;;;;11.15;9.07;;;21.40;75.90;;;;;;5100565;28;20157;-82
2021/06/09 10:29:49;;;;;;;11.25;9.52;;;21.40;76.00;;;;;;5064598;28;20184;-82
2021/06/09 10:32:17;;;;;;;11.10;9.13;;;21.40;76.00;;;;;;5080719;28;20191;-85
2021/06/09 10:34:44;;;;;;;10.27;9.18;;;21.40;76.80;;;;;;5097484;28;20216;-82
2021/06/09 10:37:10;;;;;;;10.55;9.45;;;21.40;76.10;;;;;;5098386;28;20157;-81
2021/06/09 10:39:39;;;;;;;10.35;9.23;;;21.40;76.10;;;;;;5079491;28;20168;-82
2021/06/09 10:42:09;;;;;;;12.23;9.52;;;21.40;75.90;;;;;;5097001;28;20149;-81
2021/06/09 10:44:41;;;;;;;10.75;9.55;;;21.50;75.70;;;;;;5079389;28;20239;-82
2021/06/09 10:47:13;;;;;;;12.25;9.23;;;21.50;75.80;;;;;;5078053;28;20191;-84
2021/06/09 10:49:41;;;;;;;11.18;9.60;;;21.50;75.60;;;;;;5078891;28;20240;-82
2021/06/09 10:52:07;;;;;;;10.30;9.20;;;21.50;75.50;;;;;;5097356;28;20216;-82
2021/06/09 10:54:34;;;;;;;10.35;9.25;;;21.50;75.40;;;;;;5062495;28;20224;-81
2021/06/09 10:57:02;;;;;;;10.95;9.50;;;21.50;75.60;;;;;;5060576;28;20191;-82
2021/06/09 10:59:31;;;;;;;9.60;8.55;;;21.40;75.90;;;;;;5078268;28;20180;-81
2021/06/09 11:02:02;;;;;;;10.45;8.88;;;21.40;76.00;;;;;;5045608;28;20200;-82
2021/06/09 11:04:41;;;;;;;10.13;8.30;;;21.40;76.00;;;;;;5093812;28;20161;-81
2021/06/09 11:07:31;;;;;;;10.65;9.02;;;21.30;76.30;;;;;;5078217;28;20204;-84
2021/06/09 11:10:03;;;;;;;10.07;8.35;;;21.30;76.50;;;;;;5076726;28;20208;-81
2021/06/09 11:12:38;;;;;;;9.05;8.07;;;21.20;76.90;;;;;;5076791;28;20531;-81
2021/06/09 11:15:15;;;;;;;8.73;7.82;;;21.30;77.00;;;;;;5061360;28;20214;-83
2021/06/09 11:17:50;;;;;;;9.88;8.60;;;21.30;77.20;;;;;;5076655;28;20180;-83
2021/06/09 11:20:24;;;;;;;9.57;8.57;;;21.20;77.50;;;;;;5092748;28;20558;-83
2021/06/09 11:22:52;;;;;;;9.70;8.23;;;21.10;77.50;;;;;;5094030;28;20284;-82
2021/06/09 11:25:22;;;;;;;9.52;8.52;;;21.20;77.80;;;;;;5093497;28;20149;-83
2021/06/09 11:28:07;;;;;;;9.68;8.45;;;21.10;77.80;;;;;;5094237;28;20169;-82
2021/06/09 11:30:50;;;;;;;10.23;8.20;;;21.10;77.90;;;;;;5094712;28;20519;-83
2021/06/09 11:33:29;;;;;;;9.00;8.02;;;21.10;78.10;;;;;;5094959;28;20172;-83
2021/06/09 11:35:58;;;;;;;8.90;8.00;;;21.10;78.50;;;;;;5093830;28;20196;-83
2021/06/09 11:38:32;;;;;;;10.43;8.40;;;21.10;78.60;;;;;;5093415;28;20153;-83
2021/06/09 11:41:01;;;;;;;8.80;7.90;;;21.10;78.80;;;;;;5093507;28;20156;-82
2021/06/09 11:43:37;;;;;;;10.10;8.82;;;21.00;78.90;;;;;;5094606;28;20148;-81
2021/06/09 11:46:08;;;;;;;10.18;8.63;;;21.00;78.90;;;;;;5094947;28;20603;-82
2021/06/09 11:48:34;;;;;;;9.52;8.27;;;21.00;78.90;;;;;;5093228;28;20504;-82
2021/06/09 11:51:28;;;;;;;9.45;8.27;;;21.00;79.20;;;;;;5094202;28;20233;-81
2021/06/09 11:53:57;;;;;;;10.27;9.15;;;21.00;79.40;;;;;;5093462;28;20164;-81
2021/06/09 11:56:39;;;;;;;10.70;8.80;;;21.00;79.40;;;;;;5093130;28;20188;-84
2021/06/09 11:59:07;;;;;;;10.30;9.20;;;21.00;79.80;;;;;;5094129;28;20244;-84
2021/06/09 12:01:38;;;;;;;10.05;8.82;;;21.10;79.80;;;;;;5092909;28;20157;-83
2021/06/09 12:04:25;;;;;;;11.30;9.52;;;21.00;79.80;;;;;;5094204;28;20160;-82
2021/06/09 12:06:57;;;;;;;10.15;9.02;;;21.00;80.10;;;;;;5093328;28;20167;-82
2021/06/09 12:09:24;;;;;;;10.25;9.15;;;21.00;80.30;;;;;;5094259;28;20148;-81
2021/06/09 12:11:52;;;;;;;10.88;9.00;;;21.10;80.50;;;;;;5092911;28;20153;-81
2021/06/09 12:14:21;;;;;;;9.98;8.88;;;21.10;80.70;;;;;;5093053;28;20191;-82
2021/06/09 12:16:48;;;;;;;10.93;9.23;;;21.10;80.60;;;;;;5093069;28;20157;-82
2021/06/09 12:19:26;;;;;;;11.75;9.60;;;21.00;80.60;;;;;;5092721;28;20555;-84
2021/06/09 12:21:56;;;;;;;12.05;10.07;;;21.00;80.90;;;;;;5093231;28;20179;-81
2021/06/09 12:24:21;;;;;;;10.77;9.68;;;21.00;80.80;;;;;;5094024;28;20638;-83
2021/06/09 12:26:50;;;;;;;10.70;9.60;;;21.10;81.00;;;;;;5092580;28;20145;-81
2021/06/09 12:29:16;;;;;;;13.48;9.32;;;21.00;81.50;;;;;;5093010;28;20153;-82
2021/06/09 12:31:42;;;;;;;11.45;10.13;;;21.00;81.40;;;;;;5092415;28;20160;-82
2021/06/09 12:34:28;;;;;;;10.73;9.63;;;21.00;81.50;;;;;;5059829;28;20628;-82
2021/06/09 12:36:58;;;;;;;11.40;10.18;;;21.00;81.70;;;;;;5076851;28;20211;-85
2021/06/09 12:39:24;;;;;;;10.75;9.40;;;21.00;81.70;;;;;;5092598;28;20157;-81
2021/06/09 12:41:50;;;;;;;10.70;9.60;;;21.10;81.80;;;;;;5093032;28;20180;-83
2021/06/09 12:44:16;;;;;;;10.93;9.70;;;21.00;81.30;;;;;;5092583;28;20176;-84
2021/06/09 12:46:50;;;;;;;11.32;10.13;;;21.10;81.00;;;;;;5076200;28;20169;-82
2021/06/09 12:49:30;;;;;;;11.05;9.85;;;21.10;80.90;;;;;;5092958;28;20156;-82
2021/06/09 12:52:09;;;;;;;11.60;10.07;;;21.20;80.50;;;;;;5091329;28;20230;-83
2021/06/09 12:54:40;;;;;;;10.65;9.30;;;21.10;80.30;;;;;;5092809;28;20176;-83